Terminal Aerodrome Forecast
Issued by NWS

Home | Current Version | Previous Version | Text Only | Print | Product List | Glossary Off
Versions: 1 2 3 4 5 6 7 8 9 10 11 12 13 14 15 16 17 18 19 20

000
FTUS43 KGRB 231900 AAA
TAFATW
TAF AMD
KATW 231934Z 2320/2418 20012KT 1 1/2SM BR VV004
      TEMPO 2320/2321 3SM -DZ BR SCT004 OVC011
     FM232100 19006KT 3SM BR BKN006 OVC012
      TEMPO 2321/2401 6SM BR SCT006 OVC012
     FM240100 18004KT 4SM BR BKN010 OVC020
     FM240500 VRB03KT 4SM BR OVC006
     FM240900 VRB03KT 3SM BR OVC003
     FM241500 01008KT 5SM BR OVC006=

USA.gov is the U.S. government's official web portal to all federal, state and local government web resources and services.